Kadesh, Louisiana
Current Conditions -  °F | °C
As of 8:35 PM on Wednesday 17 Dec 2014 (Local Time) from KIER Reporting Station
Clear Clear  
Wind Chill: 48°   Ceiling: Unl
Heat Index: 48°   Visibility: 10mi
Dew Point: 44°   Wind: 3mph
Humidity: 84%   Direction: 40°NE
Pressure: 30.18"   Gusts: NA
Location:  31.6668°N, 92.8023°W
Report Text: KIER 180235Z AUTO 04003KT 10SM CLR 09/07 A3018 RMK AO2 T00900065
Loading
Personal Weather Stations






























Interactive Weather Map New forecast layout! Learn more

10-Day Weather Forecast

Advertisements
Track Severe Weather on mobile